YSSYYBNA

Guest
Details From YSSY - Sydney Intl
To YBNA - Ballina
Flight Number -
Tags Routegen
Created
Modified
Stats Distance 342 nm / 634 km
Max Altitude 0 ft / 0 m
Waypoints 5
Social Downloads 19
Likes 0
Share VATSIM

Download

Looking for another format? Having issues loading an existing format? Contact us
Advertisement - Login to hide

Notes

None

Route

YSSY -33.79_+151.13 BANDA -28.96_+153.08 YBNA

ID Type Via Altitude Latitude Longitude Leg Dist Tot Dist Heading (true) Name
O YSSY APT - 0 ft / 0 m -33.92936˚ 151.17160˚ - 0 nm - -
-33.79_+151.13 DME - 0 ft / 0 m -33.78786˚ 151.13497˚ 8 nm 8 nm 348° / 348° -
BANDA FIX - 0 ft / 0 m -30.79972˚ 152.57306˚ 193 nm 202 nm 23° / 22° -
-28.96_+153.08 DME - 0 ft / 0 m -28.95891˚ 153.07624˚ 113 nm 316 nm 13° / 13° -
O YBNA APT - 0 ft / 0 m -28.83575˚ 153.55181˚ 26 nm 342 nm 74° / 73° -

Altitude Profile

Advertisement - Login to hide

Weather


0- 5 10 15 20 25 30 35+ Temperature / ° C

Clouds and Precipitation
Forecast for 2018-05-24 06:00 UTC. Updated 2 hours ago

Ground ~20,000 ft ~40,000 ft Winds

YSSY

Details ICAO YSSY (SYD)
Name Sydney Intl
Region Australia
Timezone Australia/Sydney (UTC+10.0)
Stats Elevation 21 ft / 6 m (AMSL)
Location -33.949273° 151.181347°
Runways 3
Magnetic Variation 12.604° E

METAR

YSSY 240630Z 17013KT 9999 FEW024 BKN032 17/13 Q1023 NOSIG

Decode

TAF

TAF YSSY 240505Z 2406/2512 16015KT 9999 SCT025 FM241200 21008KT 9999 SCT025 BKN035 FM250000 16012KT 9999 SCT035 FM251000 22008KT 9999 FEW035

Decode

Departure Runways

ID Width Length Bearing (true) Bearing (mag) Surface Threshold Offset Overrun Length
07 148 ft / 45 m 8,285 ft / 2,525 m 74.13° 61.53° Asphalt 0 ft / 0 m 0 ft / 0 m
16L 148 ft / 45 m 8,018 ft / 2,444 m 167.81° 155.21° Asphalt 758 ft / 231 m 0 ft / 0 m
16R 148 ft / 45 m 13,033 ft / 3,973 m 167.86° 155.26° Asphalt 279 ft / 85 m 0 ft / 0 m
25 148 ft / 45 m 8,285 ft / 2,525 m 254.12° 241.52° Asphalt 324 ft / 99 m 0 ft / 0 m
34L 148 ft / 45 m 13,033 ft / 3,973 m 347.85° 335.25° Asphalt 0 ft / 0 m 0 ft / 0 m
34R 148 ft / 45 m 8,018 ft / 2,444 m 347.81° 335.21° Asphalt 125 ft / 38 m 0 ft / 0 m

YBNA

Details ICAO YBNA (BNK)
Name Ballina/Byron Gateway
Region Australia
Timezone Australia/Sydney (UTC+10.0)
Stats Elevation 6 ft / 2 m (AMSL)
Location -28.833306° 153.561207°
Runways 1
Magnetic Variation 11.559° E

METAR

YBNA 240600Z AUTO 15006KT 9999 // NCD 20/15 Q1021

Decode

TAF

Not found

Destination Runways

ID Width Length Bearing (true) Bearing (mag) Surface Threshold Offset Overrun Length
06 98 ft / 30 m 6,241 ft / 1,902 m 73.50° 61.94° Asphalt 0 ft / 0 m 0 ft / 0 m
24 98 ft / 30 m 6,241 ft / 1,902 m 253.50° 241.94° Asphalt 0 ft / 0 m 0 ft / 0 m

Popular Alternatives